Time,TemperatureF,DewpointF,PressureIn,WindDirection,WindDirectionDegrees,WindSpeedMPH,WindSpeedGustMPH,Humidity,HourlyPrecipIn,Conditions,Clouds,dailyrainin,SoftwareType,DateUTC
2013-10-26 00:04:00,48.4,-47.9,30.01,NW,315,0.0,-999.0,1,-99.99,,,0.00,Acu-Link.com,2013-10-26 05:04:00,
2013-10-26 00:20:00,48.4,-47.9,30.01,NW,315,0.0,-999.0,1,-99.99,,,0.00,Acu-Link.com,2013-10-26 05:20:00,
2013-10-26 00:35:00,48.0,-48.2,30.00,WSW,247,0.0,-999.0,1,-99.99,,,0.00,Acu-Link.com,2013-10-26 05:35:00,
2013-10-26 00:50:00,47.8,-48.3,30.00,NW,315,0.0,-999.0,1,-99.99,,,0.00,Acu-Link.com,2013-10-26 05:50:00,
2013-10-26 01:05:00,47.7,-48.4,29.99,NW,315,0.0,-999.0,1,-99.99,,,0.00,Acu-Link.com,2013-10-26 06:05:00,
2013-10-26 01:20:00,47.5,-48.5,29.98,NW,315,0.0,-999.0,1,-99.99,,,0.00,Acu-Link.com,2013-10-26 06:20:00,
2013-10-26 01:35:00,47.5,-48.5,29.98,NW,315,0.0,-999.0,1,-99.99,,,0.00,Acu-Link.com,2013-10-26 06:35:00,
2013-10-26 01:50:00,47.3,-48.6,29.99,WSW,247,0.0,-999.0,1,-99.99,,,0.00,Acu-Link.com,2013-10-26 06:50:00,
2013-10-26 02:07:00,47.3,-48.6,29.99,WSW,247,0.0,-999.0,1,-99.99,,,0.00,Acu-Link.com,2013-10-26 07:07:00,
2013-10-26 02:22:00,47.1,-48.7,29.98,WNW,292,0.0,-999.0,1,-99.99,,,0.00,Acu-Link.com,2013-10-26 07:22:00,
2013-10-26 02:37:00,46.8,-48.9,29.98,West,270,0.0,-999.0,1,-99.99,,,0.00,Acu-Link.com,2013-10-26 07:37:00,
2013-10-26 02:53:00,46.6,-49.0,29.98,West,270,0.0,-999.0,1,-99.99,,,0.00,Acu-Link.com,2013-10-26 07:53:00,
2013-10-26 03:08:00,46.4,-49.2,29.98,West,270,0.0,-999.0,1,-99.99,,,0.00,Acu-Link.com,2013-10-26 08:08:00,
2013-10-26 03:23:00,46.2,-49.3,29.98,NNW,337,0.0,-999.0,1,-99.99,,,0.00,Acu-Link.com,2013-10-26 08:23:00,
2013-10-26 03:38:00,46.0,-49.4,29.97,NNW,337,0.0,-999.0,1,-99.99,,,0.00,Acu-Link.com,2013-10-26 08:38:00,
2013-10-26 03:53:00,46.0,-49.4,29.97,NW,315,0.0,-999.0,1,-99.99,,,0.00,Acu-Link.com,2013-10-26 08:53:00,
2013-10-26 04:09:00,45.9,-49.5,29.98,West,270,0.0,-999.0,1,-99.99,,,0.00,Acu-Link.com,2013-10-26 09:09:00,
2013-10-26 04:24:00,45.5,-49.7,29.97,NW,315,0.0,-999.0,1,-99.99,,,0.00,Acu-Link.com,2013-10-26 09:24:00,
2013-10-26 04:39:00,46.0,-49.4,29.97,NE,45,0.0,-999.0,1,-99.99,,,0.00,Acu-Link.com,2013-10-26 09:39:00,
2013-10-26 04:54:00,46.8,-48.9,29.96,ENE,67,0.0,-999.0,1,-99.99,,,0.00,Acu-Link.com,2013-10-26 09:54:00,
2013-10-26 05:09:00,45.7,-49.6,29.96,NW,315,0.0,-999.0,1,-99.99,,,0.00,Acu-Link.com,2013-10-26 10:09:00,
2013-10-26 05:24:00,45.1,-50.0,29.96,WNW,292,0.0,-999.0,1,-99.99,,,0.00,Acu-Link.com,2013-10-26 10:24:00,
2013-10-26 05:39:00,45.0,-50.0,29.96,WNW,292,0.0,-999.0,1,-99.99,,,0.00,Acu-Link.com,2013-10-26 10:39:00,
2013-10-26 05:55:00,44.2,-50.5,29.97,NNE,22,0.0,-999.0,1,-99.99,,,0.00,Acu-Link.com,2013-10-26 10:55:00,
2013-10-26 06:10:00,44.2,-50.5,29.97,WSW,247,0.0,-999.0,1,-99.99,,,0.00,Acu-Link.com,2013-10-26 11:10:00,
2013-10-26 06:25:00,43.9,-50.7,29.97,West,270,0.0,-999.0,1,-99.99,,,0.00,Acu-Link.com,2013-10-26 11:25:00,
2013-10-26 06:40:00,44.2,-50.5,29.97,NNE,22,0.0,-999.0,1,-99.99,,,0.00,Acu-Link.com,2013-10-26 11:40:00,
2013-10-26 06:55:00,44.2,-50.5,29.98,NW,315,0.0,-999.0,1,-99.99,,,0.00,Acu-Link.com,2013-10-26 11:55:00,
2013-10-26 07:11:00,44.2,-50.5,29.97,NE,45,0.0,-999.0,1,-99.99,,,0.00,Acu-Link.com,2013-10-26 12:11:00,
2013-10-26 07:26:00,43.9,-50.7,29.98,West,270,0.0,-999.0,1,-99.99,,,0.00,Acu-Link.com,2013-10-26 12:26:00,
2013-10-26 07:41:00,44.8,-50.1,29.99,NW,315,1.7,-999.0,1,-99.99,,,0.00,Acu-Link.com,2013-10-26 12:41:00,
2013-10-26 07:56:00,48.4,-47.9,29.98,ENE,67,2.2,-999.0,1,-99.99,,,0.00,Acu-Link.com,2013-10-26 12:56:00,
2013-10-26 08:11:00,50.0,-46.9,29.99,NE,45,1.7,-999.0,1,-99.99,,,0.00,Acu-Link.com,2013-10-26 13:11:00,
2013-10-26 08:26:00,52.9,-45.2,29.99,ENE,67,3.7,-999.0,1,-99.99,,,0.00,Acu-Link.com,2013-10-26 13:26:00,
2013-10-26 09:19:00,53.8,-44.6,29.99,East,90,4.7,-999.0,1,-99.99,,,0.00,Acu-Link.com,2013-10-26 14:19:00,
2013-10-26 09:40:00,63.7,-38.6,29.99,SSE,157,4.2,-999.0,1,-99.99,,,0.00,Acu-Link.com,2013-10-26 14:40:00,
2013-10-26 10:00:00,63.9,-38.5,30.00,ENE,67,4.2,-999.0,1,-99.99,,,0.00,Acu-Link.com,2013-10-26 15:00:00,
2013-10-26 10:17:00,66.4,-37.0,30.00,SE,135,5.8,-999.0,1,-99.99,,,0.00,Acu-Link.com,2013-10-26 15:17:00,
2013-10-26 10:37:00,68.5,-35.7,30.00,SSE,157,2.7,-999.0,1,-99.99,,,0.00,Acu-Link.com,2013-10-26 15:37:00,
2013-10-26 11:06:00,72.9,-33.1,29.99,ENE,67,3.2,-999.0,1,-99.99,,,0.00,Acu-Link.com,2013-10-26 16:06:00,
2013-10-26 14:14:00,82.0,-27.7,29.90,ENE,67,2.7,-999.0,1,-99.99,,,0.00,Acu-Link.com,2013-10-26 19:14:00,
2013-10-26 14:31:00,81.3,-28.1,29.89,SSE,157,3.7,-999.0,1,-99.99,,,0.00,Acu-Link.com,2013-10-26 19:31:00,
2013-10-26 14:46:00,81.7,-27.8,29.89,SE,135,4.2,-999.0,1,-99.99,,,0.00,Acu-Link.com,2013-10-26 19:46:00,
2013-10-26 15:01:00,81.3,-28.1,29.88,WSW,247,1.7,-999.0,1,-99.99,,,0.00,Acu-Link.com,2013-10-26 20:01:00,
2013-10-26 15:16:00,81.3,-28.1,29.88,SW,225,1.1,-999.0,1,-99.99,,,0.00,Acu-Link.com,2013-10-26 20:16:00,
2013-10-26 15:31:00,81.9,-27.7,29.88,SW,225,2.2,-999.0,1,-99.99,,,0.00,Acu-Link.com,2013-10-26 20:31:00,
2013-10-26 15:46:00,81.5,-27.9,29.88,SSE,157,4.7,-999.0,1,-99.99,,,0.00,Acu-Link.com,2013-10-26 20:46:00,
2013-10-26 16:02:00,81.1,-28.2,29.88,SSW,202,4.7,-999.0,1,-99.99,,,0.00,Acu-Link.com,2013-10-26 21:02:00,
2013-10-26 16:17:00,80.8,-28.4,29.88,WSW,247,2.2,-999.0,1,-99.99,,,0.00,Acu-Link.com,2013-10-26 21:17:00,
2013-10-26 16:32:00,80.8,-28.4,29.88,South,180,2.7,-999.0,1,-99.99,,,0.00,Acu-Link.com,2013-10-26 21:32:00,
2013-10-26 16:47:00,80.4,-28.6,29.87,SSW,202,5.3,-999.0,1,-99.99,,,0.00,Acu-Link.com,2013-10-26 21:47:00,
2013-10-26 17:02:00,80.2,-28.7,29.86,SSW,202,1.1,-999.0,1,-99.99,,,0.00,Acu-Link.com,2013-10-26 22:02:00,
2013-10-26 17:17:00,81.1,-28.2,29.86,SE,135,3.2,-999.0,1,-99.99,,,0.00,Acu-Link.com,2013-10-26 22:17:00,
2013-10-26 17:32:00,80.1,-28.8,29.86,SSW,202,0.0,-999.0,1,-99.99,,,0.00,Acu-Link.com,2013-10-26 22:32:00,
2013-10-26 17:47:00,79.0,-29.4,29.86,SSW,202,2.7,-999.0,1,-99.99,,,0.00,Acu-Link.com,2013-10-26 22:47:00,
2013-10-26 18:02:00,76.3,-31.0,29.86,SW,225,1.1,-999.0,1,-99.99,,,0.00,Acu-Link.com,2013-10-26 23:02:00,
2013-10-26 18:17:00,73.0,-33.0,29.86,SW,225,0.0,-999.0,1,-99.99,,,0.00,Acu-Link.com,2013-10-26 23:17:00,
2013-10-26 18:33:00,69.1,-35.4,29.86,WSW,247,0.0,-999.0,1,-99.99,,,0.00,Acu-Link.com,2013-10-26 23:33:00,
2013-10-26 18:48:00,66.2,-37.1,29.86,WSW,247,0.0,-999.0,1,-99.99,,,0.00,Acu-Link.com,2013-10-26 23:48:00,
2013-10-26 19:03:00,63.9,-38.5,29.86,SW,225,0.0,-999.0,1,-99.99,,,0.00,Acu-Link.com,2013-10-27 00:03:00,
2013-10-26 19:18:00,62.1,-39.6,29.86,SSE,157,0.0,-999.0,1,-99.99,,,0.00,Acu-Link.com,2013-10-27 00:18:00,
2013-10-26 19:33:00,61.2,-40.1,29.86,SE,135,0.0,-999.0,1,-99.99,,,0.00,Acu-Link.com,2013-10-27 00:33:00,
2013-10-26 19:48:00,60.8,-40.4,29.86,ESE,112,0.0,-999.0,1,-99.99,,,0.00,Acu-Link.com,2013-10-27 00:48:00,
2013-10-26 20:04:00,60.1,-40.8,29.86,SE,135,0.0,-999.0,1,-99.99,,,0.00,Acu-Link.com,2013-10-27 01:04:00,
2013-10-26 20:19:00,60.1,-40.8,29.86,SE,135,0.0,-999.0,1,-99.99,,,0.00,Acu-Link.com,2013-10-27 01:19:00,
2013-10-26 20:34:00,59.2,-41.3,29.86,SW,225,0.0,-999.0,1,-99.99,,,0.00,Acu-Link.com,2013-10-27 01:34:00,
2013-10-26 20:49:00,58.3,-41.9,29.87,SW,225,0.0,-999.0,1,-99.99,,,0.00,Acu-Link.com,2013-10-27 01:49:00,
2013-10-26 21:04:00,58.1,-42.0,29.87,SSW,202,0.0,-999.0,1,-99.99,,,0.00,Acu-Link.com,2013-10-27 02:04:00,
2013-10-26 21:19:00,57.4,-42.4,29.86,ESE,112,3.2,-999.0,1,-99.99,,,0.00,Acu-Link.com,2013-10-27 02:19:00,
2013-10-26 21:35:00,57.2,-42.6,29.86,SSW,202,0.0,-999.0,1,-99.99,,,0.00,Acu-Link.com,2013-10-27 02:35:00,
2013-10-26 21:50:00,56.5,-43.0,29.86,WSW,247,0.0,-999.0,1,-99.99,,,0.00,Acu-Link.com,2013-10-27 02:50:00,
2013-10-26 22:05:00,56.1,-43.2,29.86,NE,45,0.0,-999.0,1,-99.99,,,0.00,Acu-Link.com,2013-10-27 03:05:00,
2013-10-26 22:21:00,55.9,-43.3,29.86,ESE,112,0.0,-999.0,1,-99.99,,,0.00,Acu-Link.com,2013-10-27 03:21:00,
2013-10-26 22:36:00,55.8,-43.4,29.86,WSW,247,0.0,-999.0,1,-99.99,,,0.00,Acu-Link.com,2013-10-27 03:36:00,
2013-10-26 22:51:00,55.4,-43.7,29.85,WSW,247,0.0,-999.0,1,-99.99,,,0.00,Acu-Link.com,2013-10-27 03:51:00,
2013-10-26 23:06:00,55.8,-43.4,29.85,WSW,247,0.0,-999.0,1,-99.99,,,0.00,Acu-Link.com,2013-10-27 04:06:00,
2013-10-26 23:21:00,55.4,-43.7,29.84,South,180,0.0,-999.0,1,-99.99,,,0.00,Acu-Link.com,2013-10-27 04:21:00,
2013-10-26 23:36:00,55.4,-43.7,29.84,South,180,0.0,-999.0,1,-99.99,,,0.00,Acu-Link.com,2013-10-27 04:36:00,
2013-10-26 23:51:00,54.3,-44.3,29.84,SW,225,0.0,-999.0,1,-99.99,,,0.00,Acu-Link.com,2013-10-27 04:51:00,